createdAt,value
2018-06-29T00:00:25.460Z,16.03
2018-06-29T00:02:54.240Z,16.02
2018-06-29T00:05:23.254Z,16.01
2018-06-29T00:07:52.041Z,16.01
2018-06-29T00:10:22.891Z,15.99
2018-06-29T00:12:52.301Z,15.95
2018-06-29T00:15:22.438Z,15.96
2018-06-29T00:17:51.511Z,15.96
2018-06-29T00:20:20.726Z,15.94
2018-06-29T00:22:49.879Z,15.95
2018-06-29T00:25:19.026Z,15.95
2018-06-29T00:27:47.679Z,15.95
2018-06-29T00:30:16.694Z,15.95
2018-06-29T00:32:45.805Z,15.95
2018-06-29T00:35:14.821Z,15.94
2018-06-29T00:37:43.533Z,15.95
2018-06-29T00:40:12.644Z,15.95
2018-06-29T00:42:41.529Z,15.92
2018-06-29T00:45:10.463Z,15.94
2018-06-29T00:47:39.260Z,15.92
2018-06-29T00:50:09.556Z,15.87
2018-06-29T00:52:38.596Z,15.90
2018-06-29T00:55:07.903Z,15.85
2018-06-29T00:57:37.321Z,15.85
2018-06-29T01:00:08.041Z,15.87
2018-06-29T01:02:36.840Z,15.88
2018-06-29T01:05:05.796Z,15.85
2018-06-29T01:07:34.916Z,15.87
2018-06-29T01:10:03.670Z,15.87
2018-06-29T01:12:32.466Z,15.89
2018-06-29T01:15:01.983Z,15.90
2018-06-29T01:17:31.089Z,15.95
2018-06-29T01:20:00.246Z,15.94
2018-06-29T01:22:28.974Z,15.95
2018-06-29T01:24:57.589Z,15.95
2018-06-29T01:27:27.040Z,15.96
2018-06-29T01:29:55.805Z,15.96
2018-06-29T01:32:24.504Z,15.95
2018-06-29T01:34:53.126Z,15.94
2018-06-29T01:37:22.039Z,15.92
2018-06-29T01:39:51.599Z,15.92
2018-06-29T01:42:20.263Z,15.90
2018-06-29T01:44:49.339Z,15.90
2018-06-29T01:47:18.086Z,15.91
2018-06-29T01:49:47.241Z,15.87
2018-06-29T01:52:16.143Z,15.85
2018-06-29T01:54:45.395Z,15.86
2018-06-29T01:57:14.349Z,15.86
2018-06-29T01:59:43.004Z,15.85
2018-06-29T02:02:12.003Z,15.85
2018-06-29T02:04:41.320Z,15.88
2018-06-29T02:07:09.883Z,15.86
2018-06-29T02:09:38.750Z,15.87
2018-06-29T02:12:07.629Z,15.87
2018-06-29T02:14:36.874Z,15.87
2018-06-29T02:17:05.421Z,15.86
2018-06-29T02:19:34.205Z,15.85
2018-06-29T02:22:02.924Z,15.82
2018-06-29T02:24:31.705Z,15.81
2018-06-29T02:27:00.383Z,15.81
2018-06-29T02:29:29.835Z,15.81
2018-06-29T02:31:58.440Z,15.80
2018-06-29T02:34:27.982Z,15.80
2018-06-29T02:36:56.636Z,15.82
2018-06-29T02:39:25.501Z,15.84
2018-06-29T02:41:54.585Z,15.87
2018-06-29T02:44:23.300Z,15.88
2018-06-29T02:46:52.144Z,15.88
2018-06-29T02:49:20.804Z,15.87
2018-06-29T02:51:49.610Z,15.86
2018-06-29T02:54:18.309Z,15.85
2018-06-29T02:56:46.872Z,15.82
2018-06-29T02:59:15.516Z,15.82
2018-06-29T03:01:44.219Z,15.81
2018-06-29T03:04:13.721Z,15.82
2018-06-29T03:06:42.600Z,15.83
2018-06-29T03:09:11.600Z,15.86
2018-06-29T03:11:40.200Z,15.85
2018-06-29T03:14:09.707Z,15.85
2018-06-29T03:16:38.386Z,15.86
2018-06-29T03:19:07.197Z,15.85
2018-06-29T03:21:36.090Z,15.86
2018-06-29T03:24:04.791Z,15.88
2018-06-29T03:26:34.041Z,15.90
2018-06-29T03:29:03.431Z,15.88
2018-06-29T03:31:32.327Z,15.88
2018-06-29T03:34:01.506Z,15.85
2018-06-29T03:36:30.929Z,15.82
2018-06-29T03:39:00.101Z,15.82
2018-06-29T03:41:28.968Z,15.82
2018-06-29T03:43:57.751Z,15.85
2018-06-29T03:46:26.666Z,15.87
2018-06-29T03:48:55.499Z,15.86
2018-06-29T03:51:24.830Z,15.87
2018-06-29T03:53:53.417Z,15.88
2018-06-29T03:56:23.001Z,15.87
2018-06-29T03:58:51.817Z,15.83
2018-06-29T04:01:21.264Z,15.82
2018-06-29T04:03:50.259Z,15.86
2018-06-29T04:06:19.188Z,15.90
2018-06-29T04:08:47.816Z,15.95
2018-06-29T04:11:17.185Z,15.99
2018-06-29T04:13:46.129Z,16.00
2018-06-29T04:16:14.812Z,16.02
2018-06-29T04:18:44.014Z,16.02
2018-06-29T04:21:12.724Z,16.00
2018-06-29T04:23:41.474Z,15.96
2018-06-29T04:26:10.302Z,15.99
2018-06-29T04:28:39.783Z,16.03
2018-06-29T04:31:08.720Z,16.07
2018-06-29T04:33:37.639Z,16.11
2018-06-29T04:36:07.207Z,16.14
2018-06-29T04:38:36.550Z,16.17
2018-06-29T04:41:05.249Z,16.18
2018-06-29T04:43:34.047Z,16.21
2018-06-29T04:46:03.184Z,16.23
2018-06-29T04:48:32.012Z,16.28
2018-06-29T04:51:00.753Z,16.35
2018-06-29T04:53:29.452Z,16.41
2018-06-29T04:55:58.134Z,16.43
2018-06-29T04:58:27.404Z,16.46
2018-06-29T05:00:56.512Z,16.44
2018-06-29T05:03:25.789Z,16.43
2018-06-29T05:05:54.585Z,16.42
2018-06-29T05:08:23.311Z,16.40
2018-06-29T05:10:52.344Z,16.37
2018-06-29T05:13:21.036Z,16.37
2018-06-29T05:15:49.826Z,16.38
2018-06-29T05:18:19.399Z,16.41
2018-06-29T05:20:48.305Z,16.41
2018-06-29T05:23:18.230Z,16.44
2018-06-29T05:25:46.916Z,16.53
2018-06-29T05:28:16.316Z,16.66
2018-06-29T05:30:46.550Z,16.83
2018-06-29T05:33:15.194Z,16.93
2018-06-29T05:35:43.864Z,17.07
2018-06-29T05:38:12.785Z,17.17
2018-06-29T05:40:41.812Z,17.31
2018-06-29T05:43:10.488Z,17.50
2018-06-29T05:45:40.271Z,17.83
2018-06-29T05:48:08.986Z,18.22
2018-06-29T05:50:37.860Z,18.52
2018-06-29T05:53:07.309Z,18.90
2018-06-29T05:55:35.859Z,19.13
2018-06-29T05:58:04.701Z,19.20
2018-06-29T06:00:33.890Z,19.58
2018-06-29T06:03:02.695Z,19.32
2018-06-29T06:05:31.465Z,19.01
2018-06-29T06:08:01.012Z,18.93
2018-06-29T06:10:29.808Z,19.10
2018-06-29T06:12:59.032Z,19.41
2018-06-29T06:15:28.385Z,19.46
2018-06-29T06:17:57.190Z,19.31
2018-06-29T06:20:28.331Z,19.23
2018-06-29T06:23:01.863Z,19.15
2018-06-29T06:25:30.998Z,19.12
2018-06-29T06:27:59.666Z,19.09
2018-06-29T06:30:28.497Z,19.09
2018-06-29T06:32:57.531Z,19.23
2018-06-29T06:35:26.206Z,19.30
2018-06-29T06:37:56.176Z,19.23
2018-06-29T06:40:24.788Z,19.22
2018-06-29T06:42:53.514Z,19.31
2018-06-29T06:45:22.433Z,19.46
2018-06-29T06:47:51.111Z,19.71
2018-06-29T06:50:20.022Z,20.04
2018-06-29T06:52:49.002Z,20.44
2018-06-29T06:55:17.763Z,20.87
2018-06-29T06:57:46.422Z,21.09
2018-06-29T07:00:15.652Z,21.14
2018-06-29T07:02:44.451Z,21.11
2018-06-29T07:05:13.613Z,21.06
2018-06-29T07:07:42.496Z,20.99
2018-06-29T07:10:11.518Z,21.21
2018-06-29T07:12:40.932Z,21.33
2018-06-29T07:15:09.823Z,22.19
2018-06-29T07:17:38.835Z,22.94
2018-06-29T07:20:09.335Z,23.30
2018-06-29T07:22:38.237Z,23.31
2018-06-29T07:25:07.118Z,23.69
2018-06-29T07:27:36.631Z,24.88
2018-06-29T07:30:06.903Z,25.38
2018-06-29T07:32:36.099Z,25.50
2018-06-29T07:35:05.338Z,25.89
2018-06-29T07:37:34.617Z,26.93
2018-06-29T07:40:03.488Z,27.85
2018-06-29T07:42:33.332Z,27.68
2018-06-29T07:45:02.396Z,27.33
2018-06-29T07:47:31.146Z,27.55
2018-06-29T07:50:00.678Z,27.55
2018-06-29T07:52:29.766Z,27.17
2018-06-29T07:54:59.096Z,26.78
2018-06-29T07:57:28.528Z,26.74
2018-06-29T07:59:57.632Z,26.48
2018-06-29T08:02:26.524Z,25.70
2018-06-29T08:04:56.074Z,24.89
2018-06-29T08:07:24.803Z,24.26
2018-06-29T08:09:53.599Z,23.70
2018-06-29T08:12:22.522Z,23.17
2018-06-29T08:14:51.312Z,22.95
2018-06-29T08:17:20.236Z,22.84
2018-06-29T08:19:49.356Z,22.73
2018-06-29T08:22:18.983Z,22.66
2018-06-29T08:24:58.731Z,22.46
2018-06-29T08:27:27.476Z,22.26
2018-06-29T08:29:56.339Z,22.27
2018-06-29T08:32:25.272Z,22.43
2018-06-29T08:34:54.556Z,22.63
2018-06-29T08:37:23.563Z,22.87
2018-06-29T08:39:52.991Z,22.99
2018-06-29T08:42:21.836Z,23.19
2018-06-29T08:44:50.547Z,23.28
2018-06-29T08:47:19.523Z,23.26
2018-06-29T08:49:48.517Z,23.20
2018-06-29T08:52:17.432Z,23.00
2018-06-29T08:54:46.362Z,22.94
2018-06-29T08:57:15.266Z,22.88
2018-06-29T08:59:43.896Z,22.67
2018-06-29T09:02:13.282Z,22.47
2018-06-29T09:04:42.177Z,22.36
2018-06-29T09:07:11.033Z,22.47
2018-06-29T09:09:40.668Z,22.67
2018-06-29T09:12:09.911Z,22.95
2018-06-29T09:14:38.915Z,22.94
2018-06-29T09:17:07.725Z,23.07
2018-06-29T09:19:36.653Z,23.39
2018-06-29T09:22:05.439Z,23.60
2018-06-29T09:24:35.042Z,23.75
2018-06-29T09:27:04.338Z,23.49
2018-06-29T09:29:33.314Z,23.57
2018-06-29T09:32:02.658Z,23.74
2018-06-29T09:34:31.613Z,24.16
2018-06-29T09:37:00.282Z,24.43
2018-06-29T09:39:29.296Z,24.83
2018-06-29T09:41:58.506Z,25.28
2018-06-29T09:44:27.393Z,25.24
2018-06-29T09:46:56.069Z,25.10
2018-06-29T09:49:25.283Z,25.16
2018-06-29T09:51:54.314Z,25.27
2018-06-29T09:54:23.872Z,25.88
2018-06-29T09:56:52.527Z,26.53
2018-06-29T09:59:21.904Z,26.78
2018-06-29T10:01:50.638Z,26.59
2018-06-29T10:04:19.871Z,26.84
2018-06-29T10:06:48.865Z,27.31
2018-06-29T10:09:18.050Z,27.75
2018-06-29T10:11:46.994Z,28.46
2018-06-29T10:14:16.566Z,29.50
2018-06-29T10:16:45.327Z,30.31
2018-06-29T10:19:14.948Z,30.49
2018-06-29T10:21:44.127Z,30.25
2018-06-29T10:24:13.821Z,30.90
2018-06-29T10:26:42.724Z,30.91
2018-06-29T10:29:11.552Z,31.56
2018-06-29T10:31:40.310Z,33.23
2018-06-29T10:34:09.232Z,34.35
2018-06-29T10:36:38.742Z,34.74
2018-06-29T10:39:10.812Z,35.52
2018-06-29T10:41:39.829Z,36.43
2018-06-29T10:44:08.743Z,35.72
2018-06-29T10:46:38.297Z,36.13
2018-06-29T10:49:07.827Z,36.84
2018-06-29T10:51:36.992Z,37.63
2018-06-29T10:54:06.035Z,38.38
2018-06-29T10:56:35.141Z,38.99
2018-06-29T10:59:04.253Z,40.34
2018-06-29T11:01:32.822Z,39.00
2018-06-29T11:04:01.841Z,37.55
2018-06-29T11:06:31.178Z,36.05
2018-06-29T11:08:59.967Z,35.40
2018-06-29T11:11:28.748Z,35.30
2018-06-29T11:13:57.739Z,34.93
2018-06-29T11:16:27.244Z,35.18
2018-06-29T11:18:55.950Z,34.85
2018-06-29T11:21:24.774Z,35.66
2018-06-29T11:23:53.723Z,35.98
2018-06-29T11:26:23.204Z,36.06
2018-06-29T11:28:52.163Z,36.41
2018-06-29T11:31:21.063Z,37.06
2018-06-29T11:33:49.653Z,37.15
2018-06-29T11:36:18.767Z,37.46
2018-06-29T11:38:48.228Z,37.34
2018-06-29T11:41:16.998Z,37.04
2018-06-29T11:43:46.573Z,37.52
2018-06-29T11:46:15.645Z,37.86
2018-06-29T11:48:44.387Z,38.53
2018-06-29T11:51:13.223Z,37.91
2018-06-29T11:53:42.327Z,37.99
2018-06-29T11:56:11.338Z,38.22
2018-06-29T11:58:40.229Z,38.47
2018-06-29T12:01:09.200Z,38.57
2018-06-29T12:03:38.379Z,38.23
2018-06-29T12:06:07.533Z,38.41
2018-06-29T12:08:37.309Z,38.61
2018-06-29T12:11:06.413Z,38.19
2018-06-29T12:13:35.428Z,38.02
2018-06-29T12:16:04.449Z,37.27
2018-06-29T12:18:34.018Z,37.30
2018-06-29T12:21:02.988Z,36.99
2018-06-29T12:23:32.310Z,36.19
2018-06-29T12:26:01.375Z,35.81
2018-06-29T12:28:30.921Z,35.52
2018-06-29T12:30:59.902Z,35.63
2018-06-29T12:33:29.157Z,35.34
2018-06-29T12:35:58.310Z,35.74
2018-06-29T12:38:27.128Z,35.41
2018-06-29T12:40:56.682Z,35.12
2018-06-29T12:43:26.079Z,35.21
2018-06-29T12:45:55.384Z,34.56
2018-06-29T12:48:24.350Z,33.83
2018-06-29T12:50:53.400Z,33.54
2018-06-29T12:53:22.245Z,32.89
2018-06-29T12:55:51.238Z,32.71
2018-06-29T12:58:21.291Z,32.65
2018-06-29T13:00:50.209Z,32.96
2018-06-29T13:03:18.902Z,32.37
2018-06-29T13:05:48.021Z,31.99
2018-06-29T13:08:17.151Z,32.23
2018-06-29T13:10:46.209Z,32.59
2018-06-29T13:13:15.470Z,32.49
2018-06-29T13:15:44.462Z,32.20
2018-06-29T13:18:14.124Z,31.78
2018-06-29T13:20:44.173Z,31.34
2018-06-29T13:23:13.604Z,31.20
2018-06-29T13:25:42.700Z,31.09
2018-06-29T13:28:11.835Z,30.66
2018-06-29T13:30:41.280Z,30.77
2018-06-29T13:33:10.660Z,31.48
2018-06-29T13:35:39.758Z,31.67
2018-06-29T13:38:08.974Z,31.68
2018-06-29T13:40:38.070Z,32.39
2018-06-29T13:43:07.439Z,32.48
2018-06-29T13:45:36.378Z,32.08
2018-06-29T13:48:05.733Z,31.44
2018-06-29T13:50:34.601Z,30.88
2018-06-29T13:53:04.144Z,30.82
2018-06-29T13:55:33.998Z,30.42
2018-06-29T13:58:03.720Z,30.62
2018-06-29T14:00:32.714Z,30.33
2018-06-29T14:03:01.908Z,29.96
2018-06-29T14:05:31.234Z,30.38
2018-06-29T14:08:00.114Z,30.40
2018-06-29T14:10:28.973Z,30.27
2018-06-29T14:12:57.973Z,29.98
2018-06-29T14:15:27.063Z,29.95
2018-06-29T14:17:55.975Z,29.82
2018-06-29T14:20:24.862Z,29.80
2018-06-29T14:22:53.791Z,29.51
2018-06-29T14:25:22.643Z,29.65
2018-06-29T14:27:51.268Z,29.76
2018-06-29T14:30:20.316Z,29.70
2018-06-29T14:32:49.137Z,29.55
2018-06-29T14:35:17.954Z,29.50
2018-06-29T14:37:46.805Z,29.58
2018-06-29T14:40:15.492Z,29.34
2018-06-29T14:42:44.299Z,29.42
2018-06-29T14:45:13.784Z,29.32
2018-06-29T14:47:43.409Z,29.09
2018-06-29T14:50:12.240Z,28.96
2018-06-29T14:52:41.525Z,28.90
2018-06-29T14:55:10.925Z,28.82
2018-06-29T14:57:39.853Z,28.51
2018-06-29T15:00:10.194Z,28.43
2018-06-29T15:02:39.406Z,28.40
2018-06-29T15:05:08.745Z,28.42
2018-06-29T15:07:37.494Z,28.32
2018-06-29T15:10:07.045Z,28.34
2018-06-29T15:12:36.659Z,28.13
2018-06-29T15:15:05.505Z,28.03
2018-06-29T15:17:35.718Z,28.08
2018-06-29T15:20:05.720Z,28.27
2018-06-29T15:22:34.252Z,28.62
2018-06-29T15:25:02.981Z,28.71
2018-06-29T15:27:32.864Z,28.59
2018-06-29T15:30:01.975Z,28.20
2018-06-29T15:32:30.625Z,28.11
2018-06-29T15:34:59.353Z,27.95
2018-06-29T15:37:28.225Z,27.72
2018-06-29T15:39:57.265Z,27.72
2018-06-29T15:42:26.043Z,27.71
2018-06-29T15:44:56.929Z,27.55
2018-06-29T15:47:26.445Z,27.35
2018-06-29T15:49:55.544Z,27.19
2018-06-29T15:52:24.774Z,27.15
2018-06-29T15:54:53.852Z,27.16
2018-06-29T15:57:22.559Z,27.26
2018-06-29T15:59:51.414Z,27.22
2018-06-29T16:02:20.335Z,27.10
2018-06-29T16:04:49.936Z,26.95
2018-06-29T16:07:19.169Z,26.83
2018-06-29T16:09:48.049Z,26.78
2018-06-29T16:12:16.794Z,26.73
2018-06-29T16:14:45.485Z,26.66
2018-06-29T16:17:14.135Z,26.64
2018-06-29T16:19:43.286Z,26.67
2018-06-29T16:22:12.229Z,26.65
2018-06-29T16:24:41.751Z,26.64
2018-06-29T16:27:11.380Z,26.61
2018-06-29T16:29:40.190Z,26.58
2018-06-29T16:32:09.320Z,26.54
2018-06-29T16:34:38.350Z,26.43
2018-06-29T16:37:07.072Z,26.45
2018-06-29T16:39:35.910Z,26.40
2018-06-29T16:42:04.591Z,26.30
2018-06-29T16:44:33.845Z,26.30
2018-06-29T16:47:03.192Z,26.29
2018-06-29T16:49:32.048Z,26.28
2018-06-29T16:52:01.400Z,26.30
2018-06-29T16:54:30.171Z,26.29
2018-06-29T16:56:59.302Z,26.25
2018-06-29T16:59:28.520Z,26.22
2018-06-29T17:01:57.197Z,26.18
2018-06-29T17:04:26.337Z,26.13
2018-06-29T17:06:55.603Z,26.12
2018-06-29T17:09:24.539Z,26.09
2018-06-29T17:11:54.200Z,26.06
2018-06-29T17:14:22.927Z,26.05
2018-06-29T17:16:52.675Z,26.03
2018-06-29T17:19:21.890Z,25.97
2018-06-29T17:21:51.125Z,25.95
2018-06-29T17:24:20.188Z,25.94
2018-06-29T17:26:49.128Z,25.93
2018-06-29T17:29:18.083Z,25.93
2018-06-29T17:31:46.945Z,25.93
2018-06-29T17:34:15.784Z,25.92
2018-06-29T17:36:44.526Z,25.90
2018-06-29T17:39:13.544Z,25.84
2018-06-29T17:41:42.405Z,25.80
2018-06-29T17:44:12.089Z,25.75
2018-06-29T17:46:41.343Z,25.71
2018-06-29T17:49:10.585Z,25.70
2018-06-29T17:51:39.796Z,25.68
2018-06-29T17:54:09.123Z,25.66
2018-06-29T17:56:39.234Z,25.65
2018-06-29T17:59:08.565Z,25.62
2018-06-29T18:01:37.834Z,25.59
2018-06-29T18:04:07.036Z,25.56
2018-06-29T18:06:36.352Z,25.52
2018-06-29T18:09:08.093Z,25.49
2018-06-29T18:11:37.724Z,25.46
2018-06-29T18:14:07.049Z,25.40
2018-06-29T18:16:36.044Z,25.38
2018-06-29T18:19:05.389Z,25.33
2018-06-29T18:21:34.337Z,25.27
2018-06-29T18:24:04.053Z,25.22
2018-06-29T18:26:33.642Z,25.11
2018-06-29T18:29:03.097Z,25.03
2018-06-29T18:31:32.103Z,24.94
2018-06-29T18:34:01.615Z,24.85
2018-06-29T18:36:30.815Z,24.75
2018-06-29T18:38:59.966Z,24.62
2018-06-29T18:41:29.326Z,24.52
2018-06-29T18:43:58.774Z,24.43
2018-06-29T18:46:28.817Z,24.32
2018-06-29T18:48:59.036Z,24.25
2018-06-29T18:51:28.107Z,24.15
2018-06-29T18:53:57.281Z,24.06
2018-06-29T18:56:26.457Z,23.93
2018-06-29T18:58:55.691Z,23.79
2018-06-29T19:01:25.205Z,23.65
2018-06-29T19:03:55.082Z,23.52
2018-06-29T19:06:24.320Z,23.39
2018-06-29T19:08:53.685Z,23.24
2018-06-29T19:11:23.663Z,23.11
2018-06-29T19:13:53.285Z,23.00
2018-06-29T19:16:23.506Z,22.88
2018-06-29T19:18:52.395Z,22.75
2018-06-29T19:21:21.484Z,22.63
2018-06-29T19:23:50.591Z,22.54
2018-06-29T19:26:19.906Z,22.51
2018-06-29T19:28:49.056Z,22.38
2018-06-29T19:31:18.373Z,22.24
2018-06-29T19:33:47.560Z,22.11
2018-06-29T19:36:16.366Z,22.04
2018-06-29T19:38:45.348Z,21.92
2018-06-29T19:41:14.187Z,21.79
2018-06-29T19:43:43.090Z,21.67
2018-06-29T19:46:11.896Z,21.55
2018-06-29T19:48:40.830Z,21.45
2018-06-29T19:51:10.187Z,21.31
2018-06-29T19:53:39.224Z,21.25
2018-06-29T19:56:08.599Z,21.16
2018-06-29T19:58:38.326Z,21.06
2018-06-29T20:01:08.301Z,20.93
2018-06-29T20:03:37.186Z,20.82
2018-06-29T20:06:06.455Z,20.79
2018-06-29T20:08:35.700Z,20.68
2018-06-29T20:11:04.540Z,20.56
2018-06-29T20:13:33.475Z,20.48
2018-06-29T20:16:02.450Z,20.42
2018-06-29T20:18:31.437Z,20.33
2018-06-29T20:21:00.831Z,20.29
2018-06-29T20:23:30.056Z,20.24
2018-06-29T20:25:59.215Z,20.18
2018-06-29T20:28:28.107Z,20.08
2018-06-29T20:30:57.769Z,20.09
2018-06-29T20:33:26.575Z,19.96
2018-06-29T20:35:56.115Z,19.87
2018-06-29T20:38:25.375Z,19.81
2018-06-29T20:40:54.525Z,19.78
2018-06-29T20:43:23.916Z,19.76
2018-06-29T20:45:52.915Z,19.73
2018-06-29T20:48:22.262Z,19.64
2018-06-29T20:50:51.365Z,19.60
2018-06-29T20:53:21.856Z,19.51
2018-06-29T20:55:50.826Z,19.46
2018-06-29T20:58:20.137Z,19.38
2018-06-29T21:00:49.437Z,19.31
2018-06-29T21:03:18.187Z,19.25
2018-06-29T21:05:47.810Z,19.25
2018-06-29T21:08:16.898Z,19.18
2018-06-29T21:10:45.870Z,19.08
2018-06-29T21:13:14.550Z,19.00
2018-06-29T21:15:43.692Z,18.96
2018-06-29T21:18:12.667Z,18.88
2018-06-29T21:20:42.190Z,18.80
2018-06-29T21:23:10.992Z,18.75
2018-06-29T21:25:40.615Z,18.69
2018-06-29T21:28:09.635Z,18.64
2018-06-29T21:30:38.601Z,18.64
2018-06-29T21:33:08.166Z,18.60
2018-06-29T21:35:36.772Z,18.53
2018-06-29T21:38:05.750Z,18.46
2018-06-29T21:40:34.756Z,18.37
2018-06-29T21:43:03.901Z,18.34
2018-06-29T21:45:32.720Z,18.34
2018-06-29T21:48:01.528Z,18.28
2018-06-29T21:50:30.326Z,18.23
2018-06-29T21:52:59.220Z,18.15
2018-06-29T21:55:28.167Z,18.11
2018-06-29T21:57:57.665Z,18.11
2018-06-29T22:00:31.754Z,18.11
2018-06-29T22:03:04.708Z,18.07
2018-06-29T22:05:33.792Z,18.02
2018-06-29T22:08:02.531Z,17.99
2018-06-29T22:10:31.429Z,17.95
2018-06-29T22:13:00.277Z,17.92
2018-06-29T22:15:29.133Z,17.89
2018-06-29T22:17:57.721Z,17.83
2018-06-29T22:20:26.472Z,17.76
2018-06-29T22:22:55.516Z,17.72
2018-06-29T22:25:24.455Z,17.67
2018-06-29T22:27:53.201Z,17.65
2018-06-29T22:30:22.202Z,17.62
2018-06-29T22:32:51.806Z,17.58
2018-06-29T22:35:21.682Z,17.56
2018-06-29T22:37:50.556Z,17.53
2018-06-29T22:40:20.113Z,17.55
2018-06-29T22:42:49.798Z,17.48
2018-06-29T22:45:18.537Z,17.40
2018-06-29T22:47:47.731Z,17.29
2018-06-29T22:50:16.986Z,17.25
2018-06-29T22:52:46.318Z,17.22
2018-06-29T22:55:15.320Z,17.15
2018-06-29T22:57:44.154Z,17.13
2018-06-29T23:00:12.898Z,17.10
2018-06-29T23:02:42.217Z,17.11
2018-06-29T23:05:11.282Z,17.04
2018-06-29T23:07:40.201Z,17.03
2018-06-29T23:10:08.868Z,16.97
2018-06-29T23:12:37.673Z,16.94
2018-06-29T23:15:06.617Z,16.91
2018-06-29T23:17:35.468Z,16.87
2018-06-29T23:20:04.754Z,16.84
2018-06-29T23:22:34.277Z,16.77
2018-06-29T23:25:04.172Z,16.76
2018-06-29T23:27:32.967Z,16.74
2018-06-29T23:30:01.695Z,16.73
2018-06-29T23:32:30.399Z,16.66
2018-06-29T23:34:59.008Z,16.65
2018-06-29T23:37:28.443Z,16.60
2018-06-29T23:39:57.141Z,16.59
2018-06-29T23:42:26.438Z,16.53
2018-06-29T23:44:55.146Z,16.49
2018-06-29T23:47:24.193Z,16.47
2018-06-29T23:49:53.566Z,16.43
2018-06-29T23:52:22.631Z,16.41
2018-06-29T23:54:51.556Z,16.42
2018-06-29T23:57:20.357Z,16.36
2018-06-29T23:59:49.301Z,16.32
